Time;durP1;ratioP1;P1;durP2;ratioP2;P2;SDS_P1;SDS_P2;PMS_P1;PMS_P2;Temp;Humidity;BMP_temperature;BMP_pressure;BME280_temperature;BME280_humidity;BME280_pressure;Samples;Min_cycle;Max_cycle;Signal;HPM_P1;HPM_P2
2022/04/25 00:01:37;;;;;;;;;;;7.60;99.90;;;;;;5000256;28;20397;-68
2022/04/25 00:04:03;;;;;;;;;;;7.60;99.90;;;;;;4997238;28;19925;-68
2022/04/25 00:06:29;;;;;;;;;;;7.60;99.90;;;;;;4999035;28;19933;-68
2022/04/25 00:08:55;;;;;;;;;;;7.70;99.90;;;;;;4996863;28;19925;-68
2022/04/25 00:11:20;;;;;;;;;;;7.70;99.90;;;;;;4998660;28;19933;-68
2022/04/25 00:13:46;;;;;;;;;;;7.80;99.90;;;;;;5011143;28;19926;-68
2022/04/25 00:16:12;;;;;;;;;;;8.10;99.90;;;;;;5000115;28;19932;-68
2022/04/25 00:18:38;;;;;;;;;;;7.80;99.90;;;;;;4993146;28;20372;-68
2022/04/25 00:21:03;;;;;;;;;;;7.80;99.90;;;;;;5006159;28;19988;-67
2022/04/25 00:23:29;;;;;;;;;;;7.90;99.90;;;;;;5001100;28;19926;-68
2022/04/25 00:25:55;;;;;;;;;;;7.90;99.90;;;;;;5004421;28;19925;-68
2022/04/25 00:28:20;;;;;;;;;;;7.90;99.90;;;;;;5000579;28;19966;-68
2022/04/25 00:30:49;;;;;;;;;;;7.90;99.90;;;;;;5013068;28;19932;-68
2022/04/25 00:33:15;;;;;;;;;;;7.90;99.90;;;;;;4997658;28;19957;-68
2022/04/25 00:35:40;;;;;;;;;;;7.90;99.90;;;;;;5011708;28;19926;-68
2022/04/25 00:38:07;;;;;;;;;;;7.90;99.90;;;;;;5002484;28;19930;-68
2022/04/25 00:40:32;;;;;;;;;;;7.90;99.90;;;;;;5002356;28;20307;-68
2022/04/25 00:42:58;;;;;;;;;;;8.00;99.90;;;;;;5012970;28;19925;-67
2022/04/25 00:45:24;;;;;;;;;;;9.20;99.90;;;;;;5000523;28;20439;-68
2022/04/25 00:47:49;;;;;;;;;;;8.00;99.90;;;;;;5003699;28;20405;-68
2022/04/25 00:50:15;;;;;;;;;;;8.00;99.90;;;;;;4997964;28;20016;-67
2022/04/25 00:52:41;;;;;;;;;;;8.10;99.90;;;;;;5004240;28;19925;-68
2022/04/25 00:55:08;;;;;;;;;;;8.00;99.90;;;;;;4991370;28;19925;-68
2022/04/25 00:57:34;;;;;;;;;;;7.90;99.90;;;;;;4991510;28;19933;-68
2022/04/25 01:00:00;;;;;;;;;;;7.90;99.90;;;;;;5000901;28;20012;-67
2022/04/25 01:02:27;;;;;;;;;;;7.90;99.90;;;;;;5002414;28;20021;-68
2022/04/25 01:04:55;;;;;;;;;;;7.90;99.90;;;;;;5000831;28;19936;-68
2022/04/25 01:07:21;;;;;;;;;;;7.90;99.90;;;;;;4994285;28;19937;-67
2022/04/25 01:09:46;;;;;;;;;;;8.20;99.90;;;;;;5004387;28;20025;-67
2022/04/25 01:12:12;;;;;;;;;;;7.90;99.90;;;;;;4999647;28;19925;-67
2022/04/25 01:14:38;;;;;;;;;;;7.90;99.90;;;;;;5018990;28;19925;-67
2022/04/25 01:17:04;;;;;;;;;;;8.00;99.90;;;;;;5001998;28;19932;-68
2022/04/25 01:19:30;;;;;;;;;;;7.90;99.90;;;;;;4998451;28;20000;-67
2022/04/25 01:21:57;;;;;;;;;;;7.90;99.90;;;;;;5003813;28;19972;-68
2022/04/25 01:27:17;;;;;;;;;;;8.70;99.90;;;;;;5000030;28;19962;-67
2022/04/25 01:29:43;;;;;;;;;;;7.80;99.90;;;;;;5003979;28;19936;-67
2022/04/25 01:32:09;;;;;;;;;;;7.80;99.90;;;;;;5003890;28;20063;-68
2022/04/25 01:34:38;;;;;;;;;;;7.70;99.90;;;;;;4995105;28;20016;-68
2022/04/25 01:37:24;;;;;;;;;;;7.70;99.90;;;;;;5011246;28;20016;-67
2022/04/25 01:39:54;;;;;;;;;;;7.60;99.90;;;;;;5003082;28;20008;-68
2022/04/25 01:42:20;;;;;;;;;;;7.60;99.90;;;;;;4999700;28;19932;-68
2022/04/25 01:44:46;;;;;;;;;;;7.50;99.90;;;;;;5011608;28;19980;-68
2022/04/25 01:47:12;;;;;;;;;;;7.80;99.90;;;;;;4992663;28;19925;-67
2022/04/25 01:49:37;;;;;;;;;;;7.40;99.90;;;;;;4998369;28;19926;-68
2022/04/25 01:52:22;;;;;;;;;;;7.50;99.90;;;;;;5004751;28;19929;-67
2022/04/25 01:54:48;;;;;;;;;;;7.40;99.90;;;;;;5001207;28;19925;-67
2022/04/25 01:57:13;;;;;;;;;;;7.40;99.90;;;;;;5011102;28;19932;-68
2022/04/25 01:59:39;;;;;;;;;;;7.40;99.90;;;;;;5010915;28;20037;-68
2022/04/25 02:02:05;;;;;;;;;;;7.40;99.90;;;;;;5000251;28;19929;-67
2022/04/25 02:04:31;;;;;;;;;;;7.50;99.90;;;;;;5003772;28;20007;-67
2022/04/25 02:06:56;;;;;;;;;;;7.50;99.90;;;;;;5001763;28;19925;-68
2022/04/25 02:09:22;;;;;;;;;;;7.50;99.90;;;;;;4993375;28;19925;-67
2022/04/25 02:11:47;;;;;;;;;;;7.60;99.90;;;;;;5012090;28;19948;-67
2022/04/25 02:14:13;;;;;;;;;;;7.60;99.90;;;;;;4998401;28;19968;-67
2022/04/25 02:16:39;;;;;;;;;;;7.60;99.90;;;;;;4996587;28;19926;-68
2022/04/25 02:19:05;;;;;;;;;;;7.60;99.90;;;;;;5004434;28;19925;-67
2022/04/25 02:21:30;;;;;;;;;;;7.60;99.90;;;;;;5006073;28;20015;-67
2022/04/25 02:23:56;;;;;;;;;;;7.60;99.90;;;;;;5006779;28;19925;-68
2022/04/25 02:26:22;;;;;;;;;;;7.00;99.90;;;;;;5001433;28;19925;-68
2022/04/25 02:28:47;;;;;;;;;;;7.60;99.90;;;;;;5008122;28;19925;-68
2022/04/25 02:31:13;;;;;;;;;;;8.40;99.90;;;;;;5000752;28;20399;-68
2022/04/25 02:33:41;;;;;;;;;;;7.70;99.90;;;;;;5016197;28;20033;-68
2022/04/25 02:36:07;;;;;;;;;;;7.80;99.90;;;;;;5004492;28;20307;-68
2022/04/25 02:38:33;;;;;;;;;;;7.70;99.90;;;;;;5003797;28;19948;-68
2022/04/25 02:41:04;;;;;;;;;;;7.80;99.90;;;;;;4986257;28;20482;-67
2022/04/25 02:43:34;;;;;;;;;;;7.80;99.90;;;;;;5008430;28;20437;-68
2022/04/25 02:46:00;;;;;;;;;;;7.70;99.90;;;;;;5001798;28;19932;-68
2022/04/25 02:48:26;;;;;;;;;;;7.70;99.90;;;;;;4998155;28;19925;-67
2022/04/25 02:50:51;;;;;;;;;;;7.80;99.90;;;;;;5004135;28;19926;-68
2022/04/25 02:53:17;;;;;;;;;;;7.80;99.90;;;;;;5006488;28;19930;-68
2022/04/25 02:55:42;;;;;;;;;;;7.70;99.90;;;;;;5004501;28;20111;-68
2022/04/25 02:58:14;;;;;;;;;;;7.70;99.90;;;;;;5002636;28;20347;-67
2022/04/25 03:00:40;;;;;;;;;;;7.70;99.90;;;;;;5002368;28;19979;-67
2022/04/25 03:03:05;;;;;;;;;;;7.80;99.90;;;;;;4997486;28;19933;-67
2022/04/25 03:05:31;;;;;;;;;;;9.10;99.90;;;;;;4998667;28;19925;-68
2022/04/25 03:07:56;;;;;;;;;;;7.70;99.90;;;;;;5005237;28;19937;-67
2022/04/25 03:10:22;;;;;;;;;;;7.90;99.90;;;;;;5001330;28;19995;-68
2022/04/25 03:12:47;;;;;;;;;;;7.70;99.90;;;;;;5005954;28;20044;-67
2022/04/25 03:15:13;;;;;;;;;;;7.80;99.90;;;;;;5006038;28;19951;-67
2022/04/25 03:17:38;;;;;;;;;;;7.70;99.90;;;;;;4998026;28;20382;-67
2022/04/25 03:20:05;;;;;;;;;;;7.70;99.90;;;;;;5004652;28;19933;-68
2022/04/25 03:22:30;;;;;;;;;;;7.70;99.90;;;;;;5002774;28;19925;-67
2022/04/25 03:24:56;;;;;;;;;;;7.70;99.90;;;;;;4997972;28;19925;-66
2022/04/25 03:27:21;;;;;;;;;;;7.70;99.90;;;;;;5003034;28;19925;-67
2022/04/25 03:29:47;;;;;;;;;;;7.70;99.90;;;;;;5001118;28;19925;-67
2022/04/25 03:32:12;;;;;;;;;;;7.70;99.90;;;;;;4994483;28;19965;-68
2022/04/25 03:34:38;;;;;;;;;;;7.70;99.90;;;;;;5002959;28;19926;-68
2022/04/25 03:37:03;;;;;;;;;;;7.80;99.90;;;;;;5003361;28;19932;-68
2022/04/25 03:39:29;;;;;;;;;;;7.70;99.90;;;;;;4993890;28;19931;-67
2022/04/25 03:41:55;;;;;;;;;;;7.70;99.90;;;;;;5004929;28;19925;-67
2022/04/25 03:44:21;;;;;;;;;;;7.60;99.90;;;;;;5005217;28;20381;-67
2022/04/25 03:46:46;;;;;;;;;;;7.60;99.90;;;;;;4997788;28;19984;-67
2022/04/25 03:49:13;;;;;;;;;;;7.60;99.90;;;;;;4996011;28;20024;-69
2022/04/25 03:51:39;;;;;;;;;;;7.60;99.90;;;;;;5001014;28;20315;-68
2022/04/25 03:54:05;;;;;;;;;;;7.60;99.90;;;;;;5002774;28;19925;-67
2022/04/25 03:59:15;;;;;;;;;;;7.50;99.90;;;;;;4998792;28;20047;-69
2022/04/25 04:01:40;;;;;;;;;;;7.50;99.90;;;;;;5002713;28;20385;-68
2022/04/25 04:04:06;;;;;;;;;;;7.60;99.90;;;;;;5004156;28;19952;-67
2022/04/25 04:06:32;;;;;;;;;;;7.50;99.90;;;;;;4985491;28;19932;-68
2022/04/25 04:08:58;;;;;;;;;;;7.50;99.90;;;;;;4994667;28;19925;-68
2022/04/25 04:11:46;;;;;;;;;;;7.40;99.90;;;;;;5021410;28;20405;-68
2022/04/25 04:14:09;;;;;;;;;;;7.40;99.90;;;;;;4997743;28;19933;-68
2022/04/25 04:16:35;;;;;;;;;;;7.40;99.90;;;;;;5003467;28;19925;-68
2022/04/25 04:19:00;;;;;;;;;;;7.40;99.90;;;;;;4998436;28;19932;-69
2022/04/25 04:21:26;;;;;;;;;;;7.40;99.90;;;;;;5001955;28;19940;-68
2022/04/25 04:23:51;;;;;;;;;;;7.40;99.90;;;;;;5002506;28;19925;-67
2022/04/25 04:26:17;;;;;;;;;;;7.30;99.90;;;;;;4999966;28;19930;-67
2022/04/25 04:28:42;;;;;;;;;;;7.30;99.90;;;;;;4998787;28;19932;-68
2022/04/25 04:31:08;;;;;;;;;;;7.20;99.90;;;;;;5004687;28;19926;-68
2022/04/25 04:33:33;;;;;;;;;;;7.30;99.90;;;;;;5004379;28;19925;-67
2022/04/25 04:36:17;;;;;;;;;;;7.50;99.90;;;;;;4999836;28;19926;-68
2022/04/25 04:38:43;;;;;;;;;;;7.30;99.90;;;;;;4999639;28;20315;-69
2022/04/25 04:41:09;;;;;;;;;;;7.30;99.90;;;;;;4997639;28;19983;-69
2022/04/25 04:43:34;;;;;;;;;;;7.30;99.90;;;;;;4999533;28;19961;-67
2022/04/25 04:46:00;;;;;;;;;;;7.30;99.90;;;;;;4997352;28;20372;-68
2022/04/25 04:48:26;;;;;;;;;;;7.30;99.90;;;;;;5009329;28;19929;-68
2022/04/25 04:50:55;;;;;;;;;;;7.40;99.90;;;;;;5003712;28;19925;-68
2022/04/25 04:53:21;;;;;;;;;;;7.40;99.90;;;;;;4997639;28;19926;-69
2022/04/25 04:55:47;;;;;;;;;;;7.40;99.90;;;;;;4998552;28;19932;-68
2022/04/25 04:58:15;;;;;;;;;;;7.50;99.90;;;;;;5002415;28;19926;-67
2022/04/25 05:00:44;;;;;;;;;;;7.50;99.90;;;;;;4999460;28;19925;-68
2022/04/25 05:03:15;;;;;;;;;;;7.50;99.90;;;;;;4999358;28;19932;-67
2022/04/25 05:05:45;;;;;;;;;;;7.50;99.90;;;;;;5001115;28;19925;-68
2022/04/25 05:08:11;;;;;;;;;;;7.50;99.90;;;;;;5001354;28;19972;-69
2022/04/25 05:10:36;;;;;;;;;;;7.40;99.90;;;;;;5005358;28;19980;-69
2022/04/25 05:13:03;;;;;;;;;;;7.40;99.90;;;;;;5004220;28;19968;-68
2022/04/25 05:15:29;;;;;;;;;;;7.40;99.90;;;;;;4995931;28;19929;-68
2022/04/25 05:17:55;;;;;;;;;;;7.40;99.90;;;;;;5004122;28;19925;-69
2022/04/25 05:20:24;;;;;;;;;;;7.40;99.90;;;;;;4997710;28;19925;-68
2022/04/25 05:22:50;;;;;;;;;;;8.80;99.90;;;;;;4993705;28;19952;-68
2022/04/25 05:25:17;;;;;;;;;;;7.50;99.90;;;;;;5002578;28;19925;-68
2022/04/25 05:27:46;;;;;;;;;;;7.40;99.90;;;;;;5000487;28;19925;-68
2022/04/25 05:30:12;;;;;;;;;;;7.60;99.90;;;;;;5010364;28;19925;-68
2022/04/25 05:32:46;;;;;;;;;;;7.40;99.90;;;;;;5000544;28;19972;-68
2022/04/25 05:35:12;;;;;;;;;;;7.40;99.90;;;;;;5001305;28;19925;-68
2022/04/25 05:37:38;;;;;;;;;;;7.40;99.90;;;;;;4991465;28;19926;-68
2022/04/25 05:40:04;;;;;;;;;;;7.50;99.90;;;;;;4996738;28;111435;-68
2022/04/25 05:42:30;;;;;;;;;;;8.60;99.90;;;;;;4987787;28;19925;-69
2022/04/25 05:44:55;;;;;;;;;;;7.50;99.90;;;;;;5004357;28;20004;-68
2022/04/25 05:47:21;;;;;;;;;;;7.40;99.90;;;;;;5000904;28;19980;-68
2022/04/25 05:52:31;;;;;;;;;;;7.40;99.90;;;;;;5003633;28;19925;-68
2022/04/25 05:54:57;;;;;;;;;;;7.90;99.90;;;;;;5005207;28;19925;-69
2022/04/25 05:57:22;;;;;;;;;;;7.60;99.90;;;;;;5001739;28;20425;-67
2022/04/25 05:59:48;;;;;;;;;;;7.60;99.90;;;;;;4998598;28;19926;-68
2022/04/25 06:02:17;;;;;;;;;;;7.60;99.90;;;;;;5000644;28;19925;-68
2022/04/25 06:04:42;;;;;;;;;;;7.60;99.90;;;;;;5010028;28;20044;-68
2022/04/25 06:07:08;;;;;;;;;;;7.60;99.90;;;;;;5004573;28;20044;-68
2022/04/25 06:09:34;;;;;;;;;;;7.80;99.90;;;;;;5004297;28;19932;-69
2022/04/25 06:12:02;;;;;;;;;;;7.70;99.90;;;;;;4999606;28;19975;-68
2022/04/25 06:14:28;;;;;;;;;;;7.70;99.90;;;;;;5000770;28;20367;-68
2022/04/25 06:16:53;;;;;;;;;;;9.00;99.90;;;;;;5003834;28;20012;-68
2022/04/25 06:19:19;;;;;;;;;;;7.80;99.90;;;;;;4994867;28;20079;-69
2022/04/25 06:21:45;;;;;;;;;;;7.80;99.90;;;;;;4996511;28;19960;-68
2022/04/25 06:24:10;;;;;;;;;;;7.90;99.90;;;;;;5004224;28;19980;-68
2022/04/25 06:26:39;;;;;;;;;;;8.20;99.90;;;;;;5001780;28;19968;-67
2022/04/25 06:29:04;;;;;;;;;;;8.50;99.90;;;;;;4998675;28;19964;-68
2022/04/25 06:31:30;;;;;;;;;;;7.90;99.90;;;;;;5004990;28;19925;-68
2022/04/25 06:33:57;;;;;;;;;;;7.90;99.90;;;;;;5001312;28;19948;-67
2022/04/25 06:36:23;;;;;;;;;;;7.90;99.90;;;;;;5020799;28;20023;-68
2022/04/25 06:38:48;;;;;;;;;;;7.90;99.90;;;;;;5007346;28;19968;-68
2022/04/25 06:41:14;;;;;;;;;;;7.80;99.90;;;;;;5009440;28;19969;-68
2022/04/25 06:43:40;;;;;;;;;;;8.20;99.90;;;;;;4988157;28;20417;-68
2022/04/25 06:46:05;;;;;;;;;;;7.90;99.90;;;;;;5007718;28;19925;-69
2022/04/25 06:48:31;;;;;;;;;;;7.90;99.90;;;;;;5010299;28;19931;-68
2022/04/25 06:50:57;;;;;;;;;;;7.80;99.90;;;;;;5006670;28;19929;-69
2022/04/25 06:53:24;;;;;;;;;;;7.80;99.90;;;;;;5003114;28;20380;-67
2022/04/25 06:55:49;;;;;;;;;;;7.80;99.90;;;;;;5007991;28;19932;-69
2022/04/25 06:58:15;;;;;;;;;;;8.00;99.90;;;;;;5001917;28;19925;-68
2022/04/25 07:00:40;;;;;;;;;;;7.90;99.90;;;;;;5002916;28;19983;-68
2022/04/25 07:03:06;;;;;;;;;;;7.90;99.90;;;;;;5007107;28;20012;-68
2022/04/25 07:05:32;;;;;;;;;;;7.90;99.90;;;;;;4999745;28;19929;-68
2022/04/25 07:07:57;;;;;;;;;;;8.00;99.90;;;;;;5000873;28;19926;-68
2022/04/25 07:10:23;;;;;;;;;;;8.20;99.90;;;;;;4999760;28;20422;-68
2022/04/25 07:12:48;;;;;;;;;;;8.00;99.90;;;;;;5008404;28;19925;-68
2022/04/25 07:15:14;;;;;;;;;;;8.00;99.90;;;;;;5007858;28;19925;-67
2022/04/25 07:17:39;;;;;;;;;;;8.10;99.90;;;;;;5001057;28;19933;-68
2022/04/25 07:20:05;;;;;;;;;;;8.10;99.90;;;;;;4992687;28;19961;-66
2022/04/25 07:30:44;;;;;;;;;;;8.20;99.90;;;;;;5008824;28;19932;-68
2022/04/25 07:33:09;;;;;;;;;;;8.20;99.90;;;;;;4995521;28;19925;-66
2022/04/25 07:35:36;;;;;;;;;;;8.20;99.90;;;;;;5004621;28;19925;-66
2022/04/25 07:38:02;;;;;;;;;;;8.10;99.90;;;;;;4998688;28;19932;-67
2022/04/25 07:40:28;;;;;;;;;;;9.20;99.90;;;;;;4999049;28;19925;-67
2022/04/25 07:42:57;;;;;;;;;;;8.10;99.90;;;;;;5001487;28;19932;-67
2022/04/25 07:45:22;;;;;;;;;;;8.10;99.90;;;;;;4998341;28;19931;-67
2022/04/25 07:47:48;;;;;;;;;;;8.10;99.90;;;;;;4998500;28;19925;-67
2022/04/25 07:50:15;;;;;;;;;;;9.20;99.90;;;;;;5006910;28;19925;-67
2022/04/25 07:52:41;;;;;;;;;;;8.20;99.90;;;;;;4995244;28;19960;-66
2022/04/25 07:55:09;;;;;;;;;;;8.20;99.90;;;;;;5000173;28;19991;-65
2022/04/25 07:57:35;;;;;;;;;;;8.30;99.90;;;;;;4998593;28;20351;-67
2022/04/25 08:00:04;;;;;;;;;;;8.30;99.90;;;;;;5016003;28;19925;-66
2022/04/25 08:02:30;;;;;;;;;;;8.40;99.90;;;;;;5003114;28;19925;-67
2022/04/25 08:04:55;;;;;;;;;;;8.40;99.90;;;;;;5007402;28;19932;-67
2022/04/25 08:07:22;;;;;;;;;;;8.40;99.90;;;;;;5004361;28;19930;-68
2022/04/25 08:09:47;;;;;;;;;;;8.50;99.90;;;;;;5007491;28;19932;-67
2022/04/25 08:20:29;;;;;;;;;;;8.70;99.90;;;;;;5002755;28;19932;-67
2022/04/25 08:22:58;;;;;;;;;;;8.70;99.90;;;;;;5005412;28;19932;-68
2022/04/25 08:25:24;;;;;;;;;;;8.60;99.90;;;;;;5003779;28;20333;-67
2022/04/25 08:27:49;;;;;;;;;;;8.60;99.90;;;;;;4995371;28;20762;-66
2022/04/25 08:30:15;;;;;;;;;;;8.70;99.90;;;;;;5005618;28;19925;-67
2022/04/25 08:32:41;;;;;;;;;;;8.90;99.90;;;;;;5009322;28;20029;-66
2022/04/25 08:35:08;;;;;;;;;;;8.80;99.90;;;;;;5005499;28;20355;-68
2022/04/25 08:37:34;;;;;;;;;;;8.90;99.90;;;;;;5000460;28;19971;-68
2022/04/25 08:39:59;;;;;;;;;;;9.10;99.90;;;;;;5008075;28;19964;-67
2022/04/25 08:42:25;;;;;;;;;;;9.20;99.90;;;;;;5001186;28;20371;-66
2022/04/25 08:44:57;;;;;;;;;;;9.30;99.90;;;;;;4997448;28;19940;-66
2022/04/25 08:47:23;;;;;;;;;;;9.40;99.90;;;;;;4999067;28;20347;-66
2022/04/25 08:49:49;;;;;;;;;;;9.50;99.90;;;;;;4997084;28;19926;-66
2022/04/25 08:52:15;;;;;;;;;;;9.50;99.90;;;;;;4997788;28;19932;-66
2022/04/25 08:54:42;;;;;;;;;;;9.60;99.90;;;;;;4992901;28;20386;-67
2022/04/25 08:57:09;;;;;;;;;;;9.60;99.90;;;;;;4995342;28;20075;-64
2022/04/25 08:59:34;;;;;;;;;;;9.70;99.90;;;;;;4992302;28;19921;-67
2022/04/25 09:02:00;;;;;;;;;;;9.80;99.90;;;;;;5009676;28;20635;-67
2022/04/25 09:04:26;;;;;;;;;;;9.80;99.90;;;;;;5000051;28;19932;-69
2022/04/25 09:06:51;;;;;;;;;;;10.00;99.90;;;;;;5005906;28;19925;-66
2022/04/25 09:09:18;;;;;;;;;;;9.90;99.90;;;;;;4996981;28;19925;-67
2022/04/25 09:14:27;;;;;;;;;;;10.00;99.90;;;;;;5000305;28;19947;-66
2022/04/25 09:16:53;;;;;;;;;;;10.10;99.90;;;;;;5003224;28;20379;-67
2022/04/25 09:19:19;;;;;;;;;;;10.20;99.90;;;;;;5018507;28;20282;-66
2022/04/25 09:21:45;;;;;;;;;;;10.20;99.90;;;;;;4999847;28;19926;-66
2022/04/25 09:24:24;;;;;;;;;;;10.20;99.90;;;;;;5000757;28;20016;-66
2022/04/25 09:26:50;;;;;;;;;;;10.20;99.90;;;;;;5003108;28;19936;-65
2022/04/25 09:29:23;;;;;;;;;;;10.10;99.90;;;;;;4999454;28;19980;-67
2022/04/25 09:31:48;;;;;;;;;;;10.90;99.90;;;;;;5005151;28;19932;-68
2022/04/25 09:34:15;;;;;;;;;;;10.10;99.90;;;;;;5002083;28;19925;-66
2022/04/25 09:36:47;;;;;;;;;;;10.20;99.90;;;;;;4994595;28;19933;-66
2022/04/25 09:39:26;;;;;;;;;;;10.20;99.90;;;;;;5002672;28;20364;-65
2022/04/25 09:41:52;;;;;;;;;;;10.40;99.90;;;;;;4996204;28;19926;-67
2022/04/25 09:44:17;;;;;;;;;;;10.50;99.90;;;;;;5002134;28;19926;-67
2022/04/25 09:46:47;;;;;;;;;;;10.60;99.90;;;;;;5004226;28;20009;-66
2022/04/25 09:49:18;;;;;;;;;;;10.80;99.90;;;;;;5006908;28;20533;-66
2022/04/25 09:52:03;;;;;;;;;;;12.10;99.90;;;;;;5009103;28;19975;-66
2022/04/25 09:54:29;;;;;;;;;;;11.00;99.90;;;;;;4989331;28;19925;-66
2022/04/25 09:56:54;;;;;;;;;;;11.20;99.90;;;;;;5000013;28;19932;-67
2022/04/25 09:59:21;;;;;;;;;;;11.50;99.90;;;;;;5008090;28;19925;-67
2022/04/25 10:02:00;;;;;;;;;;;12.20;99.90;;;;;;5005544;28;20031;-67
2022/04/25 10:04:31;;;;;;;;;;;11.90;99.90;;;;;;5001667;28;19925;-66
2022/04/25 10:06:59;;;;;;;;;;;12.00;99.90;;;;;;5013478;28;19929;-66
2022/04/25 10:09:24;;;;;;;;;;;12.10;99.90;;;;;;4997750;28;20348;-66
2022/04/25 10:11:54;;;;;;;;;;;12.30;99.90;;;;;;4997272;28;20016;-67
2022/04/25 10:14:20;;;;;;;;;;;12.60;99.90;;;;;;5002683;28;19932;-67
2022/04/25 10:16:45;;;;;;;;;;;12.70;99.90;;;;;;5004758;28;19925;-67
2022/04/25 10:19:11;;;;;;;;;;;12.50;99.90;;;;;;5015453;28;20430;-67
2022/04/25 10:21:37;;;;;;;;;;;12.50;99.90;;;;;;5008232;28;19925;-68
2022/04/25 10:24:03;;;;;;;;;;;12.50;99.90;;;;;;5000532;28;20020;-68
2022/04/25 10:26:29;;;;;;;;;;;12.60;99.90;;;;;;5008406;28;20341;-66
2022/04/25 10:28:59;;;;;;;;;;;12.80;99.90;;;;;;5003319;28;19933;-67
2022/04/25 10:31:29;;;;;;;;;;;12.70;99.90;;;;;;4997371;28;19925;-68
2022/04/25 10:33:59;;;;;;;;;;;12.80;99.90;;;;;;5009803;28;19975;-68
2022/04/25 10:36:47;;;;;;;;;;;12.70;99.90;;;;;;5001635;28;19925;-68
2022/04/25 10:39:18;;;;;;;;;;;12.70;99.90;;;;;;5009672;28;20268;-68
2022/04/25 10:44:48;;;;;;;;;;;12.70;99.90;;;;;;5004459;28;20003;-68
2022/04/25 10:47:16;;;;;;;;;;;12.70;99.90;;;;;;5001989;28;20047;-67
2022/04/25 10:49:48;;;;;;;;;;;12.80;99.90;;;;;;4995764;28;19925;-68
2022/04/25 10:52:42;;;;;;;;;;;12.70;99.90;;;;;;5010027;28;19933;-69
2022/04/25 10:55:13;;;;;;;;;;;12.70;99.90;;;;;;5008930;28;19967;-67
2022/04/25 10:57:57;;;;;;;;;;;12.70;99.90;;;;;;4984251;28;19930;-67
2022/04/25 11:03:04;;;;;;;;;;;12.70;99.90;;;;;;5000526;28;19932;-68
2022/04/25 11:05:33;;;;;;;;;;;12.80;99.90;;;;;;5004556;28;19925;-67
2022/04/25 11:08:22;;;;;;;;;;;12.80;99.90;;;;;;4993299;28;19980;-68
2022/04/25 11:11:08;;;;;;;;;;;12.80;99.90;;;;;;4991668;28;20324;-69
2022/04/25 11:13:35;;;;;;;;;;;12.90;99.90;;;;;;4999860;28;20282;-68
2022/04/25 11:16:16;;;;;;;;;;;13.00;99.90;;;;;;5002976;28;19930;-68
2022/04/25 11:18:42;;;;;;;;;;;13.00;99.90;;;;;;4999219;28;19921;-68
2022/04/25 11:21:08;;;;;;;;;;;13.10;99.90;;;;;;5003490;28;19929;-69
2022/04/25 11:23:43;;;;;;;;;;;13.30;99.90;;;;;;5001759;28;20269;-68
2022/04/25 11:26:11;;;;;;;;;;;13.20;99.90;;;;;;5010869;28;20016;-68
2022/04/25 11:28:58;;;;;;;;;;;13.20;99.90;;;;;;4998989;28;20295;-68
2022/04/25 11:31:27;;;;;;;;;;;13.20;99.90;;;;;;5025237;28;19922;-68
2022/04/25 11:33:54;;;;;;;;;;;13.20;99.90;;;;;;5026040;28;20383;-68
2022/04/25 11:36:20;;;;;;;;;;;13.30;99.90;;;;;;4999353;28;20395;-68
2022/04/25 11:41:34;;;;;;;;;;;13.10;99.90;;;;;;5008411;28;20016;-67
2022/04/25 11:44:00;;;;;;;;;;;13.30;99.90;;;;;;5011736;28;20587;-68
2022/04/25 11:46:30;;;;;;;;;;;13.40;99.90;;;;;;5003984;28;19922;-68
2022/04/25 11:48:56;;;;;;;;;;;13.30;99.90;;;;;;5005871;28;19960;-67
2022/04/25 11:51:23;;;;;;;;;;;13.20;99.90;;;;;;4997483;28;20374;-66
2022/04/25 11:53:51;;;;;;;;;;;13.20;99.90;;;;;;4999105;28;19929;-68
2022/04/25 11:56:17;;;;;;;;;;;13.20;99.90;;;;;;5004018;28;20039;-67
2022/04/25 11:58:43;;;;;;;;;;;13.20;99.90;;;;;;5001920;28;20364;-67
2022/04/25 12:01:09;;;;;;;;;;;13.20;99.90;;;;;;5000589;28;19925;-66
2022/04/25 12:03:36;;;;;;;;;;;13.10;99.90;;;;;;5006725;28;19929;-67
2022/04/25 12:06:12;;;;;;;;;;;13.10;99.90;;;;;;5000607;28;19932;-68
2022/04/25 12:17:08;;;;;;;;;;;12.80;99.90;;;;;;5011052;28;19933;-67
2022/04/25 12:19:33;;;;;;;;;;;12.70;99.90;;;;;;4997037;28;20294;-68
2022/04/25 12:22:00;;;;;;;;;;;12.30;99.90;;;;;;5022058;28;19925;-66
2022/04/25 12:24:26;;;;;;;;;;;12.30;99.90;;;;;;5019305;28;19925;-68
2022/04/25 12:26:51;;;;;;;;;;;12.50;99.90;;;;;;5008249;28;19996;-67
2022/04/25 12:29:17;;;;;;;;;;;12.30;99.90;;;;;;4994529;28;19926;-67
2022/04/25 12:31:47;;;;;;;;;;;12.20;99.90;;;;;;4999402;28;19948;-66
2022/04/25 12:34:13;;;;;;;;;;;12.30;99.90;;;;;;4997136;28;20020;-67
2022/04/25 12:36:51;;;;;;;;;;;12.30;99.90;;;;;;5002123;28;19972;-67
2022/04/25 12:39:16;;;;;;;;;;;12.40;99.90;;;;;;4996996;28;20015;-68
2022/04/25 12:41:56;;;;;;;;;;;12.40;99.90;;;;;;4997580;28;19977;-66
2022/04/25 12:44:22;;;;;;;;;;;12.60;99.90;;;;;;5000087;28;19926;-67
2022/04/25 12:46:48;;;;;;;;;;;12.70;99.90;;;;;;5010980;28;19932;-66
2022/04/25 12:49:17;;;;;;;;;;;12.70;99.90;;;;;;5002155;28;19925;-66
2022/04/25 12:51:43;;;;;;;;;;;12.70;99.90;;;;;;5005015;28;19977;-65
2022/04/25 12:54:37;;;;;;;;;;;12.80;99.90;;;;;;5000971;28;19964;-66
2022/04/25 12:57:06;;;;;;;;;;;12.80;99.90;;;;;;4979789;28;19925;-66
2022/04/25 12:59:35;;;;;;;;;;;12.90;99.90;;;;;;5000035;28;20436;-66
2022/04/25 13:02:01;;;;;;;;;;;13.20;99.90;;;;;;5006646;28;20024;-66
2022/04/25 13:04:27;;;;;;;;;;;13.50;99.90;;;;;;5006681;28;20291;-67
2022/04/25 13:06:53;;;;;;;;;;;14.00;99.90;;;;;;5008327;28;19932;-68
2022/04/25 13:09:18;;;;;;;;;;;14.10;99.90;;;;;;5004261;28;19965;-68
2022/04/25 13:11:44;;;;;;;;;;;14.80;99.90;;;;;;4991787;28;20012;-67
2022/04/25 13:14:09;;;;;;;;;;;15.50;99.90;;;;;;5001139;28;19987;-67
2022/04/25 13:16:35;;;;;;;;;;;15.90;98.70;;;;;;5008410;28;19929;-67
2022/04/25 13:19:00;;;;;;;;;;;16.30;98.10;;;;;;5004565;28;19948;-67
2022/04/25 13:21:26;;;;;;;;;;;16.60;97.20;;;;;;4999683;28;19925;-69
2022/04/25 13:23:52;;;;;;;;;;;16.90;96.80;;;;;;5000238;28;19980;-67
2022/04/25 13:26:18;;;;;;;;;;;16.60;96.30;;;;;;4999671;28;19932;-67
2022/04/25 13:28:44;;;;;;;;;;;16.90;96.50;;;;;;5009436;28;19956;-66
2022/04/25 13:31:09;;;;;;;;;;;16.50;96.10;;;;;;5008270;28;19932;-68
2022/04/25 13:33:35;;;;;;;;;;;16.50;96.30;;;;;;5006850;28;19926;-67
2022/04/25 13:36:02;;;;;;;;;;;16.60;95.90;;;;;;5009335;28;19922;-68
2022/04/25 13:38:29;;;;;;;;;;;17.10;95.60;;;;;;5000576;28;19929;-67
2022/04/25 13:40:54;;;;;;;;;;;17.20;95.10;;;;;;4998809;28;19972;-69
2022/04/25 13:43:20;;;;;;;;;;;17.10;94.80;;;;;;5009268;28;19944;-68
2022/04/25 13:45:46;;;;;;;;;;;16.90;94.90;;;;;;5009471;28;19921;-66
2022/04/25 13:48:16;;;;;;;;;;;16.30;94.80;;;;;;5001887;28;19928;-67
2022/04/25 13:50:42;;;;;;;;;;;15.60;95.60;;;;;;4987458;28;20008;-67
2022/04/25 13:53:08;;;;;;;;;;;15.40;96.10;;;;;;5005604;28;19928;-67
2022/04/25 13:55:33;;;;;;;;;;;15.40;96.90;;;;;;4996672;28;19929;-67
2022/04/25 13:58:00;;;;;;;;;;;15.50;97.20;;;;;;5006402;28;20032;-66
2022/04/25 14:00:26;;;;;;;;;;;15.50;96.60;;;;;;5008133;28;20335;-68
2022/04/25 14:03:08;;;;;;;;;;;14.80;97.00;;;;;;4999226;28;19932;-66
2022/04/25 14:05:44;;;;;;;;;;;15.00;97.20;;;;;;4993118;28;19988;-67
2022/04/25 14:08:10;;;;;;;;;;;14.70;97.00;;;;;;4999917;28;19926;-66
2022/04/25 14:10:36;;;;;;;;;;;14.30;97.70;;;;;;5003840;28;19932;-66
2022/04/25 14:13:03;;;;;;;;;;;13.90;98.50;;;;;;5007342;28;20394;-67
2022/04/25 14:15:30;;;;;;;;;;;13.70;99.00;;;;;;5006015;28;20009;-66
2022/04/25 14:17:55;;;;;;;;;;;13.60;99.10;;;;;;5011014;28;20078;-67
2022/04/25 14:20:21;;;;;;;;;;;13.30;99.60;;;;;;5011628;28;20095;-68
2022/04/25 14:22:47;;;;;;;;;;;12.70;99.90;;;;;;5010521;28;19979;-66
2022/04/25 14:25:12;;;;;;;;;;;13.10;99.90;;;;;;4991456;28;19979;-67
2022/04/25 14:27:38;;;;;;;;;;;13.00;99.90;;;;;;4993542;28;20514;-67
2022/04/25 14:30:05;;;;;;;;;;;12.90;99.90;;;;;;5000502;28;19944;-66
2022/04/25 14:32:31;;;;;;;;;;;12.80;99.90;;;;;;5010654;28;20009;-66
2022/04/25 14:34:56;;;;;;;;;;;12.80;99.90;;;;;;5000209;28;19955;-66
2022/04/25 14:37:22;;;;;;;;;;;12.90;99.90;;;;;;4993126;28;20299;-66
2022/04/25 14:39:47;;;;;;;;;;;12.80;99.90;;;;;;4998391;28;19925;-67
2022/04/25 14:42:13;;;;;;;;;;;12.60;99.90;;;;;;4999404;28;20334;-66
2022/04/25 14:44:38;;;;;;;;;;;12.60;99.90;;;;;;5003317;28;19935;-66
2022/04/25 14:47:06;;;;;;;;;;;12.50;99.90;;;;;;5007005;28;20032;-66
2022/04/25 14:55:00;;;;;;;;;;;12.60;99.90;;;;;;5010828;28;19926;-67
2022/04/25 14:57:26;;;;;;;;;;;12.60;99.90;;;;;;5005180;28;19925;-67
2022/04/25 14:59:52;;;;;;;;;;;12.60;99.90;;;;;;4995149;28;19988;-67
2022/04/25 15:02:17;;;;;;;;;;;12.40;99.90;;;;;;4999959;28;20384;-66
2022/04/25 15:04:43;;;;;;;;;;;12.40;99.90;;;;;;5004758;28;19972;-67
2022/04/25 15:07:08;;;;;;;;;;;12.30;99.90;;;;;;5007402;28;20413;-66
2022/04/25 15:09:34;;;;;;;;;;;12.20;99.90;;;;;;5002607;28;19925;-67
2022/04/25 15:11:59;;;;;;;;;;;12.20;99.90;;;;;;4997923;28;19925;-67
2022/04/25 15:14:25;;;;;;;;;;;12.20;99.90;;;;;;5005261;28;20387;-66